createdAt,value
2022-12-24T06:02:04.157Z,8.05
2022-12-24T06:04:31.119Z,9.07
2022-12-24T06:06:58.893Z,8.77
2022-12-24T06:09:27.181Z,8.75
2022-12-24T06:11:57.311Z,8.60
2022-12-24T06:14:23.957Z,8.82
2022-12-24T06:16:55.059Z,8.80
2022-12-24T06:19:21.963Z,8.43
2022-12-24T06:21:49.050Z,9.50
2022-12-24T06:24:16.643Z,7.78
2022-12-24T06:26:43.366Z,9.15
2022-12-24T06:29:12.016Z,8.65
2022-12-24T06:31:39.044Z,8.48
2022-12-24T06:34:06.435Z,9.00
2022-12-24T06:36:33.118Z,8.70
2022-12-24T06:39:00.685Z,9.98
2022-12-24T06:41:27.371Z,9.48
2022-12-24T06:43:54.710Z,8.93
2022-12-24T06:46:22.581Z,11.32
2022-12-24T06:48:49.473Z,12.20
2022-12-24T06:51:19.620Z,8.85
2022-12-24T06:53:46.769Z,9.10
2022-12-24T06:56:14.750Z,10.18
2022-12-24T06:58:44.513Z,9.50
2022-12-24T07:01:14.200Z,10.73
2022-12-24T07:03:41.507Z,10.65
2022-12-24T07:06:45.586Z,11.65
2022-12-24T07:12:15.468Z,9.68
2022-12-24T07:14:42.052Z,9.00
2022-12-24T07:17:09.912Z,8.68
2022-12-24T07:19:36.576Z,10.10
2022-12-24T07:22:03.835Z,10.25
2022-12-24T07:24:30.374Z,10.00
2022-12-24T07:26:57.255Z,8.82
2022-12-24T07:29:24.449Z,10.25
2022-12-24T07:31:51.063Z,10.55
2022-12-24T07:34:18.379Z,9.73
2022-12-24T07:36:44.930Z,11.13
2022-12-24T07:39:12.117Z,11.20
2022-12-24T07:41:41.660Z,12.43
2022-12-24T07:44:13.248Z,12.35
2022-12-24T07:46:40.670Z,11.60
2022-12-24T07:49:08.220Z,11.95
2022-12-24T07:51:34.865Z,12.77
2022-12-24T07:54:02.273Z,12.40
2022-12-24T07:56:28.809Z,12.95
2022-12-24T07:58:56.051Z,12.45
2022-12-24T08:01:22.933Z,13.18
2022-12-24T08:03:54.817Z,13.70
2022-12-24T08:06:22.108Z,14.20
2022-12-24T08:08:49.641Z,13.82
2022-12-24T08:11:16.348Z,12.93
2022-12-24T08:13:43.542Z,13.75
2022-12-24T08:16:10.213Z,14.38
2022-12-24T08:18:37.432Z,16.33
2022-12-24T08:21:07.946Z,14.82
2022-12-24T08:23:36.121Z,13.73
2022-12-24T08:26:02.818Z,17.42
2022-12-24T08:28:30.154Z,15.32
2022-12-24T08:30:56.871Z,16.70
2022-12-24T08:33:25.544Z,15.70
2022-12-24T08:35:54.694Z,14.73
2022-12-24T08:38:22.711Z,16.40
2022-12-24T08:40:50.117Z,15.82
2022-12-24T08:43:18.178Z,14.60
2022-12-24T08:45:46.419Z,15.48
2022-12-24T08:48:13.793Z,14.65
2022-12-24T08:50:41.610Z,14.05
2022-12-24T08:53:10.389Z,14.40
2022-12-24T08:55:37.398Z,13.02
2022-12-24T08:58:04.904Z,14.35
2022-12-24T09:00:31.687Z,14.30
2022-12-24T09:02:59.155Z,15.02
2022-12-24T09:05:26.039Z,16.40
2022-12-24T09:07:53.616Z,14.82
2022-12-24T09:10:20.814Z,13.85
2022-12-24T09:12:48.188Z,12.65
2022-12-24T09:15:15.228Z,15.18
2022-12-24T09:17:42.736Z,15.68
2022-12-24T09:20:10.191Z,12.73
2022-12-24T09:22:39.895Z,13.55
2022-12-24T09:25:07.414Z,14.10
2022-12-24T09:27:34.880Z,12.43
2022-12-24T09:30:01.459Z,13.63
2022-12-24T09:32:28.656Z,14.25
2022-12-24T09:34:55.272Z,13.27
2022-12-24T09:37:22.485Z,13.43
2022-12-24T09:39:49.080Z,12.02
2022-12-24T09:42:53.018Z,12.10
2022-12-24T09:45:35.936Z,14.80
2022-12-24T09:48:15.724Z,13.13
2022-12-24T09:50:59.101Z,14.05
2022-12-24T09:53:38.022Z,14.23
2022-12-24T09:56:12.896Z,15.50
2022-12-24T09:58:46.044Z,16.15
2022-12-24T10:01:15.721Z,13.68
2022-12-24T10:03:43.748Z,14.77
2022-12-24T10:06:16.100Z,13.02
2022-12-24T10:09:05.154Z,12.40
2022-12-24T10:11:44.083Z,11.47
2022-12-24T10:14:28.983Z,14.57
2022-12-24T10:17:17.726Z,11.68
2022-12-24T10:19:56.567Z,11.25
2022-12-24T10:22:35.733Z,11.73
2022-12-24T10:25:23.389Z,11.50
2022-12-24T10:27:54.753Z,9.93
2022-12-24T10:30:23.167Z,10.05
2022-12-24T10:32:52.867Z,9.70
2022-12-24T10:35:21.656Z,10.52
2022-12-24T10:37:51.470Z,10.63
2022-12-24T10:40:24.204Z,9.27
2022-12-24T10:42:51.994Z,8.43
2022-12-24T10:45:21.614Z,11.38
2022-12-24T10:47:54.562Z,10.20
2022-12-24T10:50:40.779Z,9.20
2022-12-24T10:53:21.745Z,10.23
2022-12-24T10:55:49.190Z,9.25
2022-12-24T10:58:19.840Z,9.82
2022-12-24T11:00:52.051Z,16.17
2022-12-24T11:03:19.269Z,18.25
2022-12-24T11:05:45.916Z,11.27
2022-12-24T11:08:13.089Z,9.07
2022-12-24T11:10:53.863Z,8.38
2022-12-24T11:13:38.020Z,9.57
2022-12-24T11:16:35.605Z,8.85
2022-12-24T11:19:15.713Z,7.63
2022-12-24T11:21:43.447Z,7.05
2022-12-24T11:24:12.991Z,8.40
2022-12-24T11:26:42.583Z,6.80
2022-12-24T11:29:12.440Z,11.73
2022-12-24T11:31:39.668Z,10.60
2022-12-24T11:34:30.904Z,8.68
2022-12-24T11:37:17.368Z,6.25
2022-12-24T11:39:49.459Z,9.25
2022-12-24T11:42:38.396Z,8.35
2022-12-24T11:45:17.753Z,7.47
2022-12-24T11:50:35.530Z,8.15
2022-12-24T11:53:06.029Z,12.05
2022-12-24T11:56:34.429Z,9.95
2022-12-24T11:59:26.409Z,8.27
2022-12-24T12:02:18.119Z,9.43
2022-12-24T12:04:49.961Z,8.20
2022-12-24T12:07:25.810Z,10.10
2022-12-24T12:10:02.919Z,8.60
2022-12-24T12:12:35.393Z,8.90
2022-12-24T12:15:19.421Z,9.25
2022-12-24T12:17:55.091Z,8.93
2022-12-24T12:20:30.468Z,7.88
2022-12-24T12:23:26.036Z,8.43
2022-12-24T12:26:00.178Z,9.98
2022-12-24T12:28:35.624Z,10.32
2022-12-24T12:31:15.810Z,10.45
2022-12-24T12:33:49.830Z,10.00
2022-12-24T12:36:20.918Z,9.30
2022-12-24T12:38:50.213Z,7.47
2022-12-24T12:41:36.474Z,7.35
2022-12-24T12:44:16.410Z,9.55
2022-12-24T12:49:56.504Z,8.20
2022-12-24T12:53:00.806Z,8.73
2022-12-24T12:55:40.666Z,8.77
2022-12-24T12:58:19.589Z,8.20
2022-12-24T13:00:50.030Z,10.18
2022-12-24T13:03:19.970Z,8.93
2022-12-24T13:08:57.415Z,8.10
2022-12-24T13:11:33.110Z,8.13
2022-12-24T13:14:38.369Z,8.15
2022-12-24T13:17:21.754Z,8.15
2022-12-24T13:19:59.325Z,8.77
2022-12-24T13:22:25.905Z,8.48
2022-12-24T13:24:55.676Z,8.55
2022-12-24T13:27:28.452Z,9.45
2022-12-24T13:30:09.754Z,9.35
2022-12-24T13:32:47.106Z,9.25
2022-12-24T13:35:37.924Z,7.50
2022-12-24T13:38:26.723Z,8.13
2022-12-24T13:40:55.136Z,9.02
2022-12-24T13:43:22.246Z,7.60
2022-12-24T13:45:52.117Z,7.90
2022-12-24T13:50:55.503Z,8.35
2022-12-24T13:53:29.428Z,7.13
2022-12-24T13:56:03.255Z,7.78
2022-12-24T13:58:30.793Z,6.55
2022-12-24T14:01:06.560Z,8.35
2022-12-24T14:03:45.670Z,7.38
2022-12-24T14:06:27.721Z,9.67
2022-12-24T14:09:19.192Z,7.25
2022-12-24T14:12:01.002Z,8.63
2022-12-24T14:14:41.035Z,7.70
2022-12-24T14:17:19.520Z,7.45
2022-12-24T14:19:59.328Z,8.70
2022-12-24T14:22:28.536Z,7.72
2022-12-24T14:24:59.920Z,20.23
2022-12-24T14:27:41.529Z,10.23
2022-12-24T14:30:19.786Z,7.75
2022-12-24T14:32:48.070Z,9.20
2022-12-24T14:35:21.880Z,9.82
2022-12-24T14:37:51.934Z,9.75
2022-12-24T14:40:25.856Z,8.95
2022-12-24T14:43:06.425Z,8.43
2022-12-24T14:45:46.022Z,8.40
2022-12-24T14:48:41.728Z,9.20
2022-12-24T14:51:32.735Z,11.40
2022-12-24T14:54:06.067Z,10.75
2022-12-24T14:56:32.649Z,15.77
2022-12-24T14:59:04.951Z,11.75
2022-12-24T15:01:34.388Z,10.80
2022-12-24T15:04:01.662Z,12.23
2022-12-24T15:06:31.689Z,10.98
2022-12-24T15:08:59.242Z,9.55
2022-12-24T15:11:25.974Z,9.82
2022-12-24T15:13:57.061Z,9.55
2022-12-24T15:16:37.085Z,10.13
2022-12-24T15:19:24.153Z,10.35
2022-12-24T15:21:50.964Z,10.40
2022-12-24T15:24:32.639Z,12.63
2022-12-24T15:27:02.813Z,10.00
2022-12-24T15:29:33.244Z,10.70
2022-12-24T15:32:02.248Z,9.93
2022-12-24T15:34:37.349Z,9.57
2022-12-24T15:37:31.568Z,12.80
2022-12-24T15:40:33.504Z,10.13
2022-12-24T15:43:01.049Z,10.80
2022-12-24T15:45:31.795Z,12.02
2022-12-24T15:48:06.284Z,10.80
2022-12-24T15:50:36.288Z,12.13
2022-12-24T15:53:19.932Z,11.20
2022-12-24T15:56:07.259Z,13.23
2022-12-24T15:58:40.237Z,11.88
2022-12-24T16:01:28.905Z,10.87
2022-12-24T16:03:58.505Z,10.55
2022-12-24T16:06:25.679Z,10.48
2022-12-24T16:08:52.964Z,10.32
2022-12-24T16:11:24.255Z,9.27
2022-12-24T16:13:51.229Z,11.07
2022-12-24T16:16:21.532Z,10.68
2022-12-24T16:18:54.810Z,10.85
2022-12-24T16:21:28.751Z,10.38
2022-12-24T16:23:58.837Z,10.88
2022-12-24T16:26:25.391Z,10.55
2022-12-24T16:28:52.628Z,11.60
2022-12-24T16:31:29.464Z,10.13
2022-12-24T16:33:59.291Z,10.95
2022-12-24T16:36:26.178Z,10.73
2022-12-24T16:39:11.693Z,11.07
2022-12-24T16:41:58.243Z,12.43
2022-12-24T16:44:25.487Z,11.77
2022-12-24T16:46:53.643Z,10.73
2022-12-24T16:49:23.191Z,11.35
2022-12-24T16:51:49.781Z,11.35
2022-12-24T16:54:16.976Z,11.15
2022-12-24T16:56:44.705Z,12.02
2022-12-24T16:59:17.780Z,10.88
2022-12-24T17:01:44.738Z,11.48
2022-12-24T17:04:12.303Z,10.27
2022-12-24T17:06:38.932Z,10.75
2022-12-24T17:09:06.639Z,9.65
2022-12-24T17:11:33.204Z,9.55
2022-12-24T17:14:07.210Z,10.20
2022-12-24T17:16:37.302Z,10.68
2022-12-24T17:19:05.226Z,10.55
2022-12-24T17:21:32.406Z,10.02
2022-12-24T17:23:59.619Z,10.23
2022-12-24T17:26:26.524Z,10.70
2022-12-24T17:28:55.532Z,10.05
2022-12-24T17:31:23.206Z,10.63
2022-12-24T17:33:52.010Z,11.13
2022-12-24T17:36:18.954Z,10.10
2022-12-24T17:38:46.306Z,9.77
2022-12-24T17:41:15.960Z,11.35
2022-12-24T17:43:43.675Z,9.55
2022-12-24T17:46:28.466Z,10.43
2022-12-24T17:48:56.126Z,11.20
2022-12-24T17:51:23.650Z,10.90
2022-12-24T17:53:51.399Z,13.45
2022-12-24T17:56:18.285Z,12.98
2022-12-24T17:58:46.825Z,13.07
2022-12-24T18:01:19.264Z,11.85
2022-12-24T18:03:50.033Z,12.05
2022-12-24T18:06:17.354Z,11.80
2022-12-24T18:08:46.885Z,12.95
2022-12-24T18:11:13.413Z,13.05
2022-12-24T18:13:40.871Z,13.02
2022-12-24T18:16:19.136Z,14.70
2022-12-24T18:18:46.911Z,15.55
2022-12-24T18:21:14.702Z,18.42
2022-12-24T18:23:43.430Z,19.52
2022-12-24T18:26:10.874Z,21.48
2022-12-24T18:28:38.504Z,22.50
2022-12-24T18:31:08.646Z,24.38
2022-12-24T18:33:36.560Z,31.63
2022-12-24T18:36:03.689Z,30.63
2022-12-24T18:38:31.662Z,26.13
2022-12-24T18:41:09.540Z,23.17
2022-12-24T18:43:37.223Z,21.52
2022-12-24T18:46:13.033Z,21.63
2022-12-24T18:48:41.225Z,19.92
2022-12-24T18:51:09.196Z,21.77
2022-12-24T18:53:38.832Z,19.10
2022-12-24T18:58:34.421Z,14.20
2022-12-24T19:01:01.082Z,14.82
2022-12-24T19:03:28.282Z,15.15
2022-12-24T19:06:01.901Z,17.05
2022-12-24T19:08:56.354Z,15.70
2022-12-24T19:11:16.627Z,15.60
2022-12-24T19:13:50.810Z,15.60
2022-12-24T19:16:18.272Z,13.85
2022-12-24T19:18:45.566Z,14.75
2022-12-24T19:21:13.641Z,15.05
2022-12-24T19:23:41.016Z,13.48
2022-12-24T19:26:09.179Z,14.10
2022-12-24T19:28:36.380Z,16.50
2022-12-24T19:31:08.162Z,17.25
2022-12-24T19:33:42.878Z,15.90
2022-12-24T19:36:21.303Z,15.70
2022-12-24T19:38:48.564Z,16.55
2022-12-24T19:41:27.538Z,17.23
2022-12-24T19:43:56.916Z,16.52
2022-12-24T19:46:30.420Z,20.10
2022-12-24T19:49:00.234Z,23.33
2022-12-24T19:51:28.682Z,20.58
2022-12-24T19:53:57.246Z,19.50
2022-12-24T19:56:25.565Z,19.67
2022-12-24T19:58:52.994Z,18.38
2022-12-24T20:01:24.667Z,22.08
2022-12-24T20:03:53.412Z,21.25
2022-12-24T20:06:22.918Z,24.73
2022-12-24T20:11:19.207Z,24.00
2022-12-24T20:13:46.558Z,25.70
2022-12-24T20:16:19.135Z,22.65
2022-12-24T20:19:01.544Z,24.05
2022-12-24T20:21:28.117Z,24.90
2022-12-24T20:23:55.005Z,22.50
2022-12-24T20:26:24.124Z,21.80
2022-12-24T20:28:51.471Z,20.48
2022-12-24T20:31:20.816Z,19.40
2022-12-24T20:36:17.850Z,16.63
2022-12-24T20:38:45.613Z,16.98
2022-12-24T20:41:14.437Z,17.40
2022-12-24T20:43:47.964Z,16.83
2022-12-24T20:46:16.483Z,16.05
2022-12-24T20:48:43.795Z,17.90
2022-12-24T20:51:19.199Z,17.40
2022-12-24T20:53:50.796Z,17.55
2022-12-24T20:56:18.341Z,15.50
2022-12-24T20:58:46.195Z,14.88
2022-12-24T21:01:17.656Z,13.35
2022-12-24T21:03:45.494Z,14.30
2022-12-24T21:06:12.632Z,12.80
2022-12-24T21:08:39.547Z,15.95
2022-12-24T21:11:25.639Z,14.32
2022-12-24T21:13:52.575Z,15.45
2022-12-24T21:16:19.206Z,16.65
2022-12-24T21:18:46.501Z,16.10
2022-12-24T21:21:13.086Z,13.57
2022-12-24T21:23:39.961Z,14.65
2022-12-24T21:26:07.233Z,14.25
2022-12-24T21:28:33.987Z,13.48
